Latest Weather Observations for Applethorpe

IDN60801

Issued at 2:35 pm EDT Tuesday 21 October 2014 (issued every 30 minutes, with the page automatically refreshed every 10 minutes)

About weather observations | Map of weather stations | Latest weather observations for NSW | Other Formats
Station Details ID: 041175 Name: APPLETHORPE Lat: -28.62 Lon: 151.95 Height: 871.6 m
Data from the previous 72 hours. | See also: Recent months at Applethorpe
Date/Time
EDT
Temp
°C
App
Temp
°C
Dew
Point
Rel
Hum
%
Delta-T
°C
Wind Press
QNH
hPa
Press
MSL
hPa
Rain
since 9 am
mm
Dir
 
Spd
km/h
Gust
km/h
Spd
kts
Gust
kts
21/02:30pm 20.8 18.5 9.0 46 6.5 E 11 24 6 13 1027.9 1025.4 0.0
21/02:00pm 20.6 18.7 8.9 47 6.4 E 9 19 5 10 1028.4 1025.9 0.0
21/01:30pm 20.0 17.2 8.6 47 6.2 ESE 13 24 7 13 1028.7 1026.2 0.0
21/01:00pm 20.3 17.9 8.5 46 6.4 E 11 28 6 15 1029.0 1026.5 0.0
21/12:30pm 19.8 17.1 9.0 49 5.9 ESE 13 26 7 14 1029.3 1026.8 0.0
21/12:00pm 18.9 16.1 8.7 51 5.5 E 13 28 7 15 1029.7 1027.2 0.0
21/11:30am 18.8 15.6 8.6 51 5.5 E 15 26 8 14 1029.7 1027.2 0.0
21/11:00am 18.1 14.9 8.4 53 5.2 E 15 28 8 15 1029.9 1027.4 0.0
21/10:30am 16.6 13.9 8.9 60 4.1 ESE 13 22 7 12 1030.0 1027.5 0.0
21/10:00am 15.4 12.3 9.0 65 3.4 ESE 15 26 8 14 1030.0 1027.5 0.0
21/09:30am 14.2 11.3 9.5 73 2.5 ESE 15 26 8 14 1030.0 1027.5 0.0
21/09:00am 13.8 10.5 9.7 76 2.2 ESE 17 28 9 15 1029.7 1027.2 0.0
21/08:30am 13.2 11.1 9.8 80 1.8 ESE 11 22 6 12 1029.3 1026.8 0.0
21/08:00am 12.9 10.0 9.7 81 1.7 E 15 26 8 14 1029.0 1026.5 0.0
21/07:30am 12.7 9.4 9.5 81 1.7 ESE 17 32 9 17 1028.6 1026.1 0.0
21/07:00am 12.3 9.4 9.5 83 1.5 ESE 15 30 8 16 1028.5 1026.0 0.0
21/06:30am 12.2 9.4 9.9 86 1.2 ESE 15 33 8 18 1027.9 1025.4 0.0
21/06:00am 12.4 10.0 10.0 85 1.3 ESE 13 32 7 17 1027.8 1025.3 0.0
21/05:30am 12.4 9.9 9.8 84 1.4 E 13 28 7 15 1027.6 1025.1 0.0
21/05:00am 12.4 9.9 9.8 84 1.4 ESE 13 19 7 10 1027.3 1024.7 0.0
21/04:30am 12.8 10.4 10.0 83 1.5 ESE 13 24 7 13 1027.3 1024.7 0.0
21/04:00am 12.8 10.8 10.2 84 1.4 ESE 11 20 6 11 1027.1 1024.5 0.0
21/03:30am 12.9 10.9 10.3 84 1.4 ESE 11 24 6 13 1027.3 1024.7 0.0
21/03:00am 12.8 10.8 10.2 84 1.4 ESE 11 22 6 12 1027.3 1024.7 0.0
21/02:30am 12.8 10.8 10.0 83 1.5 ESE 11 24 6 13 1027.6 1025.1 0.0
21/02:00am 12.7 11.0 9.9 83 1.5 E 9 19 5 10 1027.8 1025.3 0.0
21/01:30am 13.1 11.0 9.9 81 1.7 ESE 11 24 6 13 1027.9 1025.4 0.0
21/01:00am 13.3 10.8 9.7 79 1.9 E 13 28 7 15 1028.1 1025.6 0.0
21/12:30am 13.2 11.2 10.0 81 1.7 E 11 24 6 13 1028.5 1026.0 0.0
21/12:00am 13.1 11.5 10.1 82 1.6 E 9 22 5 12 1028.6 1026.1 0.0
 
Date/Time
EDT
Temp
°C
App
Temp
°C
Dew
Point
Rel
Hum
%
Delta-T
°C
Wind Press
QNH
hPa
Press
MSL
hPa
Rain
since 9 am
mm
Dir
 
Spd
km/h
Gust
km/h
Spd
kts
Gust
kts
20/11:30pm 13.6 11.3 10.5 81 1.7 E 13 28 7 15 1028.9 1026.4 0.0
20/11:00pm 13.6 12.1 10.5 81 1.7 E 9 20 5 11 1029.0 1026.5 0.0
20/10:30pm 13.7 11.4 10.4 80 1.8 ESE 13 24 7 13 1029.1 1026.6 0.0
20/10:00pm 13.9 11.2 10.4 79 1.9 ESE 15 30 8 16 1028.9 1026.4 0.0
20/09:30pm 14.0 11.6 10.1 77 2.1 E 13 28 7 15 1028.7 1026.2 0.0
20/09:00pm 14.8 11.9 9.8 72 2.7 E 15 28 8 15 1028.5 1026.0 0.0
20/08:30pm 15.6 13.1 11.1 74 2.5 E 15 26 8 14 1028.0 1025.5 0.0
20/08:00pm 16.3 13.7 10.7 69 3.1 E 15 30 8 16 1027.5 1025.0 0.0
20/07:30pm 17.4 15.3 8.4 55 4.8 E 9 19 5 10 1026.9 1024.4 0.0
20/07:00pm 18.9 16.6 9.0 52 5.4 E 11 24 6 13 1026.5 1024.0 0.0
20/06:30pm 20.9 17.4 7.4 41 7.2 E 15 30 8 16 1025.6 1023.1 0.0
20/06:00pm 22.9 19.5 6.0 33 8.9 E 13 26 7 14 1024.9 1022.3 0.0
20/05:30pm 23.5 18.5 3.6 27 10.1 E 19 39 10 21 1024.4 1021.9 0.0
20/05:00pm 25.1 21.0 6.0 29 10.2 ESE 17 30 9 16 1024.6 1022.0 0.0
20/04:30pm 25.3 20.8 4.3 25 10.9 ESE 17 30 9 16 1024.3 1021.8 0.0
20/04:00pm 25.7 20.7 1.1 20 12.1 ESE 17 33 9 18 1024.3 1021.8 0.0
20/03:30pm 26.2 21.2 1.4 20 12.3 ESE 17 28 9 15 1024.3 1021.8 0.0
20/03:00pm 27.5 23.2 0.8 17 13.2 ESE 13 32 7 17 1024.3 1021.8 0.0
20/02:30pm 27.8 23.3 1.9 18 13.1 ESE 15 30 8 16 1024.6 1022.0 0.0
20/02:00pm 27.7 23.1 -0.7 15 13.7 ESE 13 28 7 15 1024.9 1022.3 0.0
20/01:30pm 27.5 22.8 -1.6 15 13.9 ESE 13 26 7 14 1025.1 1022.5 0.0
20/01:00pm 27.4 24.2 3.1 21 12.5 SE 9 20 5 11 1025.3 1022.8 0.0
20/12:30pm 27.1 23.8 2.2 20 12.6 SSE 9 19 5 10 1025.9 1023.3 0.0
20/12:00pm 25.5 22.8 5.5 27 10.6 SSW 9 22 5 12 1026.1 1023.5 0.0
20/11:30am 23.4 20.0 6.0 32 9.2 SW 13 22 7 12 1026.7 1024.2 0.0
20/11:00am 21.9 19.0 6.3 36 8.2 SW 11 20 6 11 1027.1 1024.5 0.0
20/10:30am 20.9 17.4 5.6 36 7.9 SW 13 22 7 12 1027.4 1024.9 0.0
20/10:00am 20.1 16.9 7.0 42 6.9 SSW 13 20 7 11 1027.5 1025.0 0.0
20/09:30am 18.1 15.6 8.2 52 5.3 SSW 11 17 6 9 1027.6 1025.1 0.0
20/09:00am 16.9 15.1 8.0 55 4.7 SW 7 13 4 7 1027.4 1024.9 0.0
20/08:30am 14.4 13.0 8.9 69 2.9 SSW 6 7 3 4 1027.3 1024.7 0.0
20/08:00am 12.2 12.0 9.2 82 1.6 CALM 0 0 0 0 1026.9 1024.4 0.0
20/07:30am 9.6 9.3 8.6 93 0.5 CALM 0 0 0 0 1026.8 1024.3 0.0
20/07:00am 6.8 6.0 6.4 97 0.2 CALM 0 0 0 0 1026.5 1024.0 0.0
20/06:30am 5.8 4.7 5.1 95 0.3 CALM 0 0 0 0 1026.4 1023.9 0.0
20/06:00am 5.8 4.7 5.1 95 0.3 CALM 0 2 0 1 1026.2 1023.6 0.0
20/05:30am 5.7 4.6 5.3 97 0.2 CALM 0 0 0 0 1026.1 1023.5 0.0
20/05:00am 6.4 5.4 5.5 94 0.4 CALM 0 0 0 0 1026.0 1023.4 0.0
20/04:30am 6.4 5.4 5.8 96 0.3 CALM 0 0 0 0 1026.1 1023.5 0.0
20/04:00am 7.0 6.1 6.2 95 0.4 CALM 0 0 0 0 1026.2 1023.6 0.0
20/03:30am 7.0 6.2 6.6 97 0.2 CALM 0 0 0 0 1026.1 1023.5 0.0
20/03:00am 7.6 6.9 6.8 95 0.4 CALM 0 0 0 0 1026.2 1023.6 0.0
20/02:30am 7.4 6.8 7.2 99 0.1 CALM 0 0 0 0 1026.5 1024.0 0.0
20/02:00am 8.3 7.7 7.5 95 0.4 CALM 0 2 0 1 1026.8 1024.3 0.0
20/01:30am 8.6 7.7 7.6 93 0.5 N 2 4 1 2 1027.2 1024.6 0.0
20/01:00am 9.3 8.5 8.1 92 0.6 N 2 4 1 2 1027.5 1025.0 0.0
20/12:30am 10.1 9.3 8.3 88 0.9 NE 2 4 1 2 1027.8 1025.3 0.0
20/12:00am 10.9 10.3 8.8 87 1.1 NE 2 6 1 3 1027.9 1025.4 0.0
 
Date/Time
EDT
Temp
°C
App
Temp
°C
Dew
Point
Rel
Hum
%
Delta-T
°C
Wind Press
QNH
hPa
Press
MSL
hPa
Rain
since 9 am
mm
Dir
 
Spd
km/h
Gust
km/h
Spd
kts
Gust
kts
19/11:30pm 11.3 10.3 9.0 86 1.2 ENE 4 9 2 5 1028.1 1025.6 0.0
19/11:00pm 11.8 10.9 9.1 83 1.4 NE 4 6 2 3 1028.0 1025.5 0.0
19/10:30pm 12.6 11.6 9.0 79 1.9 ENE 4 9 2 5 1027.9 1025.4 0.0
19/10:00pm 13.0 11.6 7.3 68 2.9 ENE 4 6 2 3 1027.8 1025.3 0.0
19/09:30pm 12.7 11.7 7.4 70 2.7 E 2 6 1 3 1027.5 1025.0 0.0
19/09:00pm 12.5 12.0 7.8 73 2.4 CALM 0 4 0 2 1027.1 1024.5 0.0
19/08:30pm 14.9 13.8 7.1 59 4.0 E 2 6 1 3 1026.8 1024.3 0.0
19/08:00pm 15.6 13.9 6.1 53 4.8 NE 4 7 2 4 1026.5 1024.0 0.0
19/07:30pm 16.6 15.1 6.9 52 5.0 NE 4 6 2 3 1026.2 1023.6 0.0
19/07:00pm 18.3 16.1 6.0 44 6.3 E 7 13 4 7 1025.6 1023.1 0.0
19/06:30pm 20.1 18.0 6.8 42 7.0 ENE 7 15 4 8 1025.6 1023.1 0.0
19/06:00pm 21.4 19.0 7.2 40 7.6 ENE 9 17 5 9 1025.3 1022.8 0.0
19/05:30pm 22.4 20.4 7.1 37 8.2 ENE 7 15 4 8 1024.9 1022.3 0.0
19/05:00pm 22.6 20.0 6.1 34 8.7 E 9 17 5 9 1024.9 1022.3 0.0
19/04:30pm 22.9 20.0 4.9 31 9.3 ESE 9 15 5 8 1024.9 1022.3 0.0
19/04:00pm 23.5 21.2 5.9 32 9.3 ENE 7 17 4 9 1024.9 1022.3 0.0
19/03:30pm 23.8 21.7 5.8 31 9.5 S 6 15 3 8 1025.2 1022.6 0.0
19/03:00pm 23.2 20.9 7.3 36 8.6 E 9 22 5 12 1025.5 1023.0 0.0
19/02:30pm 22.7 20.9 7.3 37 8.3 N 6 11 3 6 1026.1 1023.5 0.0
19/02:00pm 21.9 20.2 8.4 42 7.4 E 7 15 4 8 1026.7 1024.2 0.0
19/01:30pm 22.7 20.9 8.0 39 8.1 NE 7 24 4 13 1027.3 1024.7 0.0
19/01:00pm 19.8 18.0 8.1 46 6.3 NNE 7 13 4 7 1027.7 1025.2 0.0
19/12:30pm 19.1 17.7 7.4 46 6.2 SW 4 9 2 5 1028.2 1025.7 0.0
19/12:00pm 19.1 17.6 8.3 49 5.8 SW 6 11 3 6 1028.6 1026.1 0.0
19/11:30am 19.1 17.5 7.8 48 6.0 ESE 6 11 3 6 1029.0 1026.5 0.0
19/11:00am 18.3 16.5 7.9 50 5.5 ESE 7 17 4 9 1029.3 1026.8 0.0
19/10:30am 17.9 16.3 8.8 55 4.9 E 7 15 4 8 1029.7 1027.2 0.0
19/10:00am 16.3 14.6 8.4 59 4.2 E 7 15 4 8 1029.8 1027.3 0.0
19/09:30am 16.0 13.8 8.0 59 4.2 E 9 13 5 7 1029.7 1027.2 0.0
19/09:00am 15.2 13.1 8.3 63 3.6 E 9 19 5 10 1029.6 1027.1 0.0
19/08:30am 13.9 11.9 8.5 70 2.8 ESE 9 15 5 8 1029.3 1026.8 0.0
19/08:00am 12.3 10.3 8.6 78 1.9 E 9 15 5 8 1029.1 1026.6 0.0
19/07:30am 11.7 10.1 8.8 82 1.5 E 7 15 4 8 1028.7 1026.2 0.0
19/07:00am 11.4 9.8 8.9 84 1.3 E 7 17 4 9 1028.4 1025.9 0.0
19/06:30am 11.0 9.0 8.7 86 1.2 E 9 17 5 9 1028.1 1025.6 0.0
19/06:00am 11.0 9.4 8.9 87 1.1 E 7 15 4 8 1027.8 1025.3 0.0
19/05:30am 11.1 9.6 9.0 87 1.1 E 7 13 4 7 1027.6 1025.1 0.0
19/05:00am 11.3 9.4 9.2 87 1.1 E 9 17 5 9 1027.4 1024.9 0.0
19/04:30am 11.2 9.7 9.3 88 1.0 E 7 17 4 9 1027.4 1024.9 0.0
19/04:00am 10.9 9.4 9.2 89 0.9 E 7 15 4 8 1027.3 1024.7 0.0
19/03:30am 11.3 10.0 9.2 87 1.1 E 6 11 3 6 1027.4 1024.9 0.0
19/03:00am 11.3 10.1 9.4 88 1.0 E 6 15 3 8 1027.4 1024.9 0.0
19/02:30am 11.3 10.1 9.4 88 1.0 E 6 11 3 6 1027.6 1025.1 0.0
19/02:00am 11.3 9.9 9.4 88 1.0 E 7 15 4 8 1027.9 1025.4 0.0
19/01:30am 11.5 10.1 9.4 87 1.1 E 7 11 4 6 1028.4 1025.9 0.0
19/01:00am 11.5 10.1 9.4 87 1.1 E 7 15 4 8 1028.6 1026.1 0.0
19/12:30am 11.6 9.7 9.1 85 1.3 E 9 22 5 12 1028.9 1026.4 0.0
19/12:00am 11.8 9.9 9.1 83 1.4 E 9 22 5 12 1028.9 1026.4 0.0
 
Date/Time
EDT
Temp
°C
App
Temp
°C
Dew
Point
Rel
Hum
%
Delta-T
°C
Wind Press
QNH
hPa
Press
MSL
hPa
Rain
since 9 am
mm
Dir
 
Spd
km/h
Gust
km/h
Spd
kts
Gust
kts
18/11:30pm 11.9 10.0 9.0 82 1.5 E 9 20 5 11 1029.0 1026.5 0.0
18/11:00pm 12.1 10.2 9.2 82 1.5 E 9 19 5 10 1028.9 1026.4 0.0
18/10:30pm 12.2 10.7 9.3 82 1.5 E 7 15 4 8 1028.9 1026.4 0.0
18/10:00pm 12.0 10.1 9.1 82 1.5 E 9 22 5 12 1028.8 1026.3 0.0
18/09:30pm 12.1 10.3 9.4 83 1.4 E 9 17 5 9 1028.6 1026.1 0.0
18/09:00pm 12.7 11.0 9.7 82 1.6 E 9 19 5 10 1028.4 1025.9 0.0
18/08:30pm 13.0 11.9 10.0 82 1.6 E 6 13 3 7 1028.1 1025.6 0.0
18/08:00pm 13.4 12.0 9.7 78 2.0 E 7 15 4 8 1027.8 1025.3 0.0
18/07:30pm 14.3 12.4 9.2 71 2.7 E 9 19 5 10 1027.4 1024.9 0.0
18/07:00pm 15.5 13.4 8.1 61 3.9 E 9 19 5 10 1026.8 1024.3 0.0
18/06:30pm 17.4 15.0 5.2 44 6.1 E 7 13 4 7 1026.4 1023.9 0.0
18/06:00pm 18.5 16.0 5.0 41 6.8 E 7 28 4 15 1025.9 1023.3 0.0
18/05:30pm 19.1 15.4 2.5 33 8.0 E 11 17 6 9 1025.5 1023.0 0.0
18/05:00pm 19.9 16.7 2.9 32 8.3 E 9 26 5 14 1025.4 1022.9 0.0
18/04:30pm 20.4 17.5 2.8 31 8.6 E 7 13 4 7 1025.4 1022.9 0.0
18/04:00pm 20.4 17.3 3.4 32 8.4 E 9 20 5 11 1025.5 1023.0 0.0

Other Formats:

Comma delimited format used in spreadsheet applications
http://www.bom.gov.au/fwo/IDN60801/IDN60801.94553.axf

JavaScript Object Notation format (JSON) in row-major order
http://www.bom.gov.au/fwo/IDN60801/IDN60801.94553.json